This is the latest recevied weather packets stored in our database for station/object ALAKES. If no packets are shown the sender has not sent any weather packets the latest 10 day(s).
| Time | Temp. | Humidity | Pressure | Rain* | Wind** | Luminosity | Snow |
|---|---|---|---|---|---|---|---|
| 1787961136 | 13.33° C | 45% | - | 0 mm | - | - | - |
| 1787960506 | 13.33° C | 44% | - | 0 mm | - | - | - |
| 1787959878 | 13.33° C | 43% | - | 0 mm | - | - | - |
| 1787959325 | 13.33° C | 43% | - | 0 mm | - | - | - |
| 1787959248 | 13.33° C | 43% | - | 0 mm | - | - | - |
| 1787958627 | 13.33° C | 42% | - | 0 mm | - | - | - |
| 1787958003 | 13.89° C | 40% | - | 0 mm | - | - | - |
| 1787957375 | 14.44° C | 37% | - | 0 mm | - | - | - |
| 1787956751 | 16.67° C | 32% | - | 0 mm | - | - | - |
| 1787956125 | 17.22° C | 30% | - | 0 mm | - | - | - |
| 1787955501 | 17.22° C | 29% | - | 0 mm | - | - | - |
| 1787954880 | 18.33° C | 26% | - | 0 mm | - | - | - |
| 1787954252 | 18.33° C | 26% | - | 0 mm | - | - | - |
| 1787953626 | 17.78° C | 30% | - | 0 mm | - | - | - |
| 1787953000 | 17.78° C | 32% | - | 0 mm | - | - | - |
| 1787952372 | 17.22° C | 32% | - | 0 mm | - | - | - |
| 1787951748 | 16.67° C | 34% | - | 0 mm | - | - | - |
| 1787951119 | 16.67° C | 34% | - | 0 mm | - | - | - |
| 1787950483 | 15.56° C | 39% | - | 0 mm | - | - | - |
| 1787949859 | 15.56° C | 38% | - | 0 mm | - | - | - |
| 1787949269 | 15.56° C | 38% | - | 0 mm | - | - | - |
| 1787949237 | 15.56° C | 38% | - | 0 mm | - | - | - |
| 1787948613 | 16.67° C | 35% | - | 0 mm | - | - | - |
| 1787947986 | 16.67° C | 34% | - | 0 mm | - | - | - |
| 1787947358 | 16.67° C | 34% | - | 0 mm | - | - | - |
* Rain latest 24 hours (hover to see other rain measurements)
** Current wind speed in m/s (hover to see current wind gust speed)